Aviation Digital Data Service (ADDS)

Output produced by METARs form (0756 UTC 10 December 2022)
found at http://www.aviationweather.gov/metar/data/
 
METAR text: EDDK 100750Z AUTO VRB02KT 9000 OVC017 M02/M03 Q1010 TEMPO BKN010
Conditions at: EDDK (KOELN/BONN , DE) observed 0750 UTC 10 December 2022
Temperature: -2.0°C (28°F)
Dewpoint: -3.0°C (27°F) [RH = 93%]
Pressure (altimeter): 29.82 inches Hg (1010.0 mb)
Winds: variable direction winds at 2 MPH (2 knots; 1.0 m/s)
Visibility: 6 miles ( 9 km)
Ceiling: 1700 feet AGL
Clouds: overcast cloud deck at 1700 feet AGL
Weather: no significant weather observed at this time

METAR text: EDDK 100720Z AUTO VRB01KT 9000 OVC017 M02/M03 Q1009 TEMPO BKN010
Conditions at: EDDK (KOELN/BONN , DE) observed 0720 UTC 10 December 2022
Temperature: -2.0°C (28°F)
Dewpoint: -3.0°C (27°F) [RH = 93%]
Pressure (altimeter): 29.79 inches Hg (1009.0 mb)
Winds: variable direction winds at 1 MPH (1 knots; 0.5 m/s)
Visibility: 6 miles ( 9 km)
Ceiling: 1700 feet AGL
Clouds: overcast cloud deck at 1700 feet AGL
Weather: no significant weather observed at this time

Forecast for: EDDK (KOELN/BONN , DE)
Text: TAF EDDK 100500Z 1006/1112 VRB03KT 7000 BKN025
Forecast period: 0600 UTC 10 December 2022 to 1200 UTC 11 December 2022
Forecast type: FROM: standard forecast or significant change
Winds: variable direction winds at 3 MPH (3 knots; 1.5 m/s)
Visibility: 4 miles (7 km)
Ceiling: 2500 feet AGL
Clouds: broken clouds at 2500 feet AGL
Weather: no significant weather forecast for this period
Text: TEMPO 1006/1011 1500 BCFG
Forecast period: 0600 to 1100 UTC 10 December 2022
Forecast type: TEMPORARY: The following changes expected for less than half the time period
Visibility: 0.93 miles (1.50 km)
Ceiling: unknown
Clouds: missing
Weather: BCFG  (patches of fog)
Text: PROB30
Forecast period: 0700 to 1300 UTC 10 December 2022
Forecast type: TEMPORARY: The following changes expected for less than half the time period
Visibility: missing
Ceiling: 600 feet AGL
Clouds: broken clouds at 600 feet AGL
Weather: no significant weather forecast for this period
Text: TEMPO 1007/1013 BKN006
Forecast period: 0000 to 1000 UTC 11 December 2022
Forecast type: TEMPORARY: The following changes expected for less than half the time period
Visibility: 2.49 miles (4.01 km)
Ceiling: 1000 feet AGL
Clouds: broken clouds at 1000 feet AGL
Weather: BR  (mist)

METAR text: EDGS 100720Z 32004KT 0350 R31/0750D FZFG FEW002 M06/M06 Q1006
Conditions at: EDGS (SIEGERLAND , DE) observed 0720 UTC 10 December 2022
Temperature: -6.0°C (21°F)
Dewpoint: -6.0°C (21°F) [RH = 100%]
Pressure (altimeter): 29.70 inches Hg (1006.0 mb)
Winds: from the NW (320 degrees) at 5 MPH (4 knots; 2.1 m/s)
Visibility: 0.22 miles (0.35 km)
Ceiling: at least 12,000 feet AGL
Clouds: few clouds at 200 feet AGL
Weather: FZFG  (freezing fog)

Forecast for: EDGS (SIEGERLAND , DE)
Text: TAF EDGS 100708Z 1008/1015 32005KT 5000 BR FEW002
Forecast period: 0800 to 1500 UTC 10 December 2022
Forecast type: FROM: standard forecast or significant change
Winds: from the NW (320 degrees) at 6 MPH (5 knots; 2.6 m/s)
Visibility: 3 miles (5 km)
Ceiling: at least 12,000 feet AGL
Clouds: few clouds at 200 feet AGL
Weather: BR  (mist)
Text: TEMPO 1008/1011 0350 FZFG BKN001
Forecast period: 0800 to 1100 UTC 10 December 2022
Forecast type: TEMPORARY: The following changes expected for less than half the time period
Visibility: 0.22 miles (0.35 km)
Ceiling: 100 feet AGL
Clouds: broken clouds at 100 feet AGL
Weather: FZFG  (freezing fog)
Text: TEMPO 1011/1015 BKN001
Forecast period: 1100 to 1500 UTC 10 December 2022
Forecast type: TEMPORARY: The following changes expected for less than half the time period
Visibility: missing
Ceiling: 100 feet AGL
Clouds: broken clouds at 100 feet AGL
Weather: no significant weather forecast for this period

METAR text: EDLW 100750Z 00000KT 9999 OVC013 M01/M04 Q1009
Conditions at: EDLW (DORTMUND/WICKEDE, DE) observed 0750 UTC 10 December 2022
Temperature: -1.0°C (30°F)
Dewpoint: -4.0°C (25°F) [RH = 80%]
Pressure (altimeter): 29.79 inches Hg (1009.0 mb)
Winds: calm
Visibility: 6 or more miles (10+ km)
Ceiling: 1300 feet AGL
Clouds: overcast cloud deck at 1300 feet AGL
Weather: no significant weather observed at this time

METAR text: EDLW 100720Z 00000KT 9999 OVC013 M01/M03 Q1009
Conditions at: EDLW (DORTMUND/WICKEDE, DE) observed 0720 UTC 10 December 2022
Temperature: -1.0°C (30°F)
Dewpoint: -3.0°C (27°F) [RH = 86%]
Pressure (altimeter): 29.79 inches Hg (1009.0 mb)
Winds: calm
Visibility: 6 or more miles (10+ km)
Ceiling: 1300 feet AGL
Clouds: overcast cloud deck at 1300 feet AGL
Weather: no significant weather observed at this time

Forecast for: EDLW (DORTMUND/WICKEDE, DE)
Text: TAF EDLW 100500Z 1006/1106 20004KT 6000 BKN014
Forecast period: 0600 UTC 10 December 2022 to 0600 UTC 11 December 2022
Forecast type: FROM: standard forecast or significant change
Winds: from the SSW (200 degrees) at 5 MPH (4 knots; 2.1 m/s)
Visibility: 4 miles (6 km)
Ceiling: 1400 feet AGL
Clouds: broken clouds at 1400 feet AGL
Weather: no significant weather forecast for this period
Text: TEMPO 1006/1011 3000 BR BKN005
Forecast period: 0600 to 1100 UTC 10 December 2022
Forecast type: TEMPORARY: The following changes expected for less than half the time period
Visibility: 1.86 miles (2.99 km)
Ceiling: 500 feet AGL
Clouds: broken clouds at 500 feet AGL
Weather: BR  (mist)
Text: PROB30
Forecast period: 0000 to 0600 UTC 11 December 2022
Forecast type: TEMPORARY: The following changes expected for less than half the time period
Visibility: 1.86 miles (2.99 km)
Ceiling: 400 feet AGL
Clouds: broken clouds at 400 feet AGL
Weather: BR  (mist)

METAR text: EDDL 100750Z AUTO 24005KT 3400 BR OVC004 M02/M02 Q1010 TEMPO 0800 FZFG
Conditions at: EDDL (DUESSELDORF , DE) observed 0750 UTC 10 December 2022
Temperature: -2.0°C (28°F)
Dewpoint: -2.0°C (28°F) [RH = 100%]
Pressure (altimeter): 29.82 inches Hg (1010.0 mb)
Winds: from the WSW (240 degrees) at 6 MPH (5 knots; 2.6 m/s)
Visibility: 2.11 miles (3.40 km)
Ceiling: 400 feet AGL
Clouds: overcast cloud deck at 400 feet AGL
Weather: BR  (mist)

METAR text: EDDL 100720Z AUTO 25005KT 4600 BR OVC006 M01/M02 Q1009 TEMPO 0800 FZFG
Conditions at: EDDL (DUESSELDORF , DE) observed 0720 UTC 10 December 2022
Temperature: -1.0°C (30°F)
Dewpoint: -2.0°C (28°F) [RH = 93%]
Pressure (altimeter): 29.79 inches Hg (1009.0 mb)
Winds: from the WSW (250 degrees) at 6 MPH (5 knots; 2.6 m/s)
Visibility: 2.86 miles (4.60 km)
Ceiling: 600 feet AGL
Clouds: overcast cloud deck at 600 feet AGL
Weather: BR  (mist)

Forecast for: AMD
Text: TAF AMD EDDL 100705Z 1007/1112 24004KT 5000 BR SCT025
Forecast period: 0700 to 2100 UTC 10 December 2022
Forecast type: FROM: standard forecast or significant change
Winds: from the WSW (240 degrees) at 5 MPH (4 knots; 2.1 m/s)
Visibility: 3 miles (5 km)
Ceiling: at least 12,000 feet AGL
Clouds: scattered clouds at 2500 feet AGL
Weather: BR  (mist)
Text: TEMPO 1007/1011 0600 FZFG BKN001
Forecast period: 0700 to 1100 UTC 10 December 2022
Forecast type: TEMPORARY: The following changes expected for less than half the time period
Visibility: 0.37 miles (0.60 km)
Ceiling: 100 feet AGL
Clouds: broken clouds at 100 feet AGL
Weather: FZFG  (freezing fog)
Text: PROB30
Forecast period: 1100 to 2100 UTC 10 December 2022
Forecast type: TEMPORARY: The following changes expected for less than half the time period
Visibility: missing
Ceiling: 800 feet AGL
Clouds: broken clouds at 800 feet AGL
Weather: no significant weather forecast for this period
Text: TEMPO 1011/1021 BKN008
Forecast period: 2100 UTC 10 December 2022 to 1200 UTC 11 December 2022
Forecast type: BECOMING: Conditions expected to become as follows by 0000 UTC 11 December 2022
Winds: from the WSW (240 degrees) at 5 MPH (4 knots; 2.1 m/s)
Visibility: 3 miles (5 km)
Ceiling: 1000 feet AGL
Clouds: broken clouds at 1000 feet AGL
Weather: BR  (mist)
Text: BECMG 1021/1024 BKN010
Forecast period: 2100 UTC 10 December 2022 to 1000 UTC 11 December 2022
Forecast type: TEMPORARY: The following changes expected for less than half the time period
Visibility: missing
Ceiling: 600 feet AGL
Clouds: broken clouds at 600 feet AGL
Weather: no significant weather forecast for this period